Terminal Aerodrome Forecast
Issued by NWS

Home | Current Version | Previous Version | Text Only | Print | Product List | Glossary On
Versions: 1 2 3 4 5 6 7 8 9 10 11 12 13 14 15 16 17 18 19 20 21
303
FTUS43 KAPX 210520
TAFTVC
TAF
KTVC 210520Z 2106/2206 00000KT 6SM BR SCT008 OVC015
     FM210800 00000KT 3SM -DZ BR OVC008
     FM211000 00000KT 1SM -DZ BR OVC005
     FM211500 11004KT 3SM -DZ BR OVC008=

USA.gov is the U.S. government's official web portal to all federal, state and local government web resources and services.